Time;durP1;ratioP1;P1;durP2;ratioP2;P2;SDS_P1;SDS_P2;PMS_P1;PMS_P2;Temp;Humidity;BMP_temperature;BMP_pressure;BME280_temperature;BME280_humidity;BME280_pressure;Samples;Min_cycle;Max_cycle;Signal;HPM_P1;HPM_P2
2023/12/21 00:00:54;;;;;;;3.83;2.33;;;;;;;6.92;100.00;99914.59;5033876;28;20140;-70
2023/12/21 00:03:22;;;;;;;5.70;2.25;;;;;;;6.89;100.00;99897.16;5037846;28;20050;-72
2023/12/21 00:05:51;;;;;;;4.93;2.10;;;;;;;6.93;100.00;99892.59;5035510;28;20121;-69
2023/12/21 00:08:20;;;;;;;4.47;2.30;;;;;;;6.91;100.00;99882.16;5026135;28;20160;-70
2023/12/21 00:10:48;;;;;;;5.07;2.10;;;;;;;6.87;100.00;99872.66;5042533;28;20147;-69
2023/12/21 00:13:18;;;;;;;3.38;2.15;;;;;;;6.83;100.00;99883.38;5030553;28;20145;-69
2023/12/21 00:15:49;;;;;;;4.13;2.13;;;;;;;6.86;100.00;99881.47;5043246;28;20041;-71
2023/12/21 00:18:18;;;;;;;2.72;2.15;;;;;;;6.83;100.00;99867.56;5029951;28;20072;-72
2023/12/21 00:20:48;;;;;;;4.70;2.17;;;;;;;6.85;100.00;99863.13;5032716;28;20041;-71
2023/12/21 00:23:17;;;;;;;3.17;1.70;;;;;;;6.86;100.00;99855.16;5033597;28;20075;-70
2023/12/21 00:25:48;;;;;;;2.50;1.80;;;;;;;6.83;100.00;99852.63;5032082;28;20076;-71
2023/12/21 00:28:26;;;;;;;3.25;2.35;;;;;;;6.69;100.00;99834.78;5025341;28;20056;-69
2023/12/21 00:30:54;;;;;;;4.68;2.33;;;;;;;6.70;100.00;99838.28;5023394;28;20056;-70
2023/12/21 00:33:23;;;;;;;4.97;2.10;;;;;;;6.67;100.00;99831.34;5029856;28;20049;-71
2023/12/21 00:35:51;;;;;;;3.95;2.08;;;;;;;6.72;100.00;99830.31;5028143;28;20046;-71
2023/12/21 00:38:25;;;;;;;4.40;2.05;;;;;;;6.71;100.00;99823.34;5034961;28;20041;-71
2023/12/21 00:40:54;;;;;;;3.85;2.28;;;;;;;6.64;100.00;99812.19;5034865;28;20045;-71
2023/12/21 00:43:22;;;;;;;2.42;2.22;;;;;;;6.58;100.00;99805.44;5031438;28;20061;-69
2023/12/21 00:45:55;;;;;;;5.43;2.40;;;;;;;6.57;100.00;99801.06;5031103;28;20131;-70
2023/12/21 00:48:23;;;;;;;4.53;2.20;;;;;;;6.60;100.00;99792.22;5013930;28;20715;-72
2023/12/21 00:50:52;;;;;;;5.60;2.40;;;;;;;6.64;100.00;99783.25;5026096;28;20041;-71
2023/12/21 00:53:23;;;;;;;3.35;1.90;;;;;;;6.59;100.00;99786.09;5036817;28;20515;-71
2023/12/21 00:55:51;;;;;;;4.43;2.10;;;;;;;6.59;100.00;99793.13;5014912;28;20094;-72
2023/12/21 00:58:21;;;;;;;4.72;2.15;;;;;;;6.52;100.00;99775.88;5030822;28;20681;-71
2023/12/21 01:00:51;;;;;;;3.05;1.83;;;;;;;6.49;100.00;99771.56;5026433;28;20625;-71
2023/12/21 01:03:19;;;;;;;3.63;2.23;;;;;;;6.49;100.00;99776.84;5028165;28;20108;-71
2023/12/21 01:05:47;;;;;;;2.55;1.80;;;;;;;6.50;100.00;99780.31;5005133;28;20049;-71
2023/12/21 01:08:15;;;;;;;4.20;1.95;;;;;;;6.52;100.00;99768.81;5025553;28;20069;-70
2023/12/21 01:10:43;;;;;;;2.95;1.70;;;;;;;6.51;100.00;99761.84;5022766;28;20041;-71
2023/12/21 01:13:12;;;;;;;4.80;1.73;;;;;;;6.48;100.00;99750.59;5026498;28;20052;-72
2023/12/21 01:15:43;;;;;;;4.50;1.60;;;;;;;6.52;100.00;99752.19;5023776;28;20053;-71
2023/12/21 01:18:15;;;;;;;2.97;1.35;;;;;;;6.54;100.00;99756.47;5027096;28;20037;-70
2023/12/21 01:20:44;;;;;;;2.42;1.13;;;;;;;6.53;100.00;99760.03;5023855;28;20068;-69
2023/12/21 01:23:16;;;;;;;2.72;1.15;;;;;;;6.51;100.00;99747.84;5031583;28;20062;-70
2023/12/21 01:25:44;;;;;;;2.50;1.10;;;;;;;6.51;100.00;99748.69;5048150;28;20072;-67
2023/12/21 01:28:12;;;;;;;2.33;1.20;;;;;;;6.59;100.00;99746.63;5017972;28;20115;-68
2023/12/21 01:30:40;;;;;;;1.42;1.23;;;;;;;6.52;100.00;99725.88;5028403;28;20053;-69
2023/12/21 01:33:08;;;;;;;1.23;0.90;;;;;;;6.60;100.00;99740.47;5037025;28;20044;-70
2023/12/21 01:35:39;;;;;;;1.73;0.80;;;;;;;6.63;100.00;99735.03;5023777;28;20464;-71
2023/12/21 01:38:08;;;;;;;1.05;0.93;;;;;;;6.62;100.00;99729.84;5023110;28;20496;-71
2023/12/21 01:40:37;;;;;;;1.15;0.80;;;;;;;6.66;100.00;99732.28;5019742;28;20107;-70
2023/12/21 01:43:05;;;;;;;1.23;0.90;;;;;;;6.66;100.00;99737.56;5029619;28;20053;-70
2023/12/21 01:45:33;;;;;;;2.72;0.65;;;;;;;6.59;100.00;99741.38;5025549;28;20056;-69
2023/12/21 01:48:02;;;;;;;0.60;0.60;;;;;;;6.52;100.00;99733.78;5030702;28;20053;-70
2023/12/21 01:50:31;;;;;;;3.10;0.82;;;;;;;6.59;100.00;99730.00;5022253;28;20045;-70
2023/12/21 01:53:03;;;;;;;1.10;0.80;;;;;;;6.56;100.00;99723.06;5031181;28;20107;-71
2023/12/21 01:55:31;;;;;;;0.60;0.60;;;;;;;6.59;100.00;99719.47;5028194;28;20060;-70
2023/12/21 01:58:00;;;;;;;0.80;0.60;;;;;;;6.59;100.00;99704.53;5007873;28;20045;-70
2023/12/21 02:00:30;;;;;;;0.88;0.60;;;;;;;6.52;100.00;99692.56;5019627;28;20046;-71
2023/12/21 02:02:57;;;;;;;0.60;0.60;;;;;;;6.59;100.00;99691.38;5011109;28;20049;-71
2023/12/21 02:05:25;;;;;;;1.42;0.50;;;;;;;6.68;100.00;99698.03;5030621;28;20050;-71
2023/12/21 02:07:56;;;;;;;1.52;0.40;;;;;;;6.64;100.00;99702.56;5029175;28;20081;-72
2023/12/21 02:10:26;;;;;;;0.77;0.60;;;;;;;6.77;100.00;99700.25;5007008;28;20049;-72
2023/12/21 02:12:56;;;;;;;0.30;0.30;;;;;;;6.75;100.00;99702.13;5028310;28;20048;-72
2023/12/21 02:15:25;;;;;;;0.60;0.60;;;;;;;6.78;100.00;99701.13;5025949;28;20865;-72
2023/12/21 02:17:54;;;;;;;1.33;0.60;;;;;;;6.79;100.00;99695.78;5044684;28;20068;-71
2023/12/21 02:20:22;;;;;;;0.68;0.40;;;;;;;6.78;100.00;99666.91;5017320;28;20065;-71
2023/12/21 02:22:53;;;;;;;0.50;0.50;;;;;;;6.76;100.00;99661.72;5010174;28;20548;-71
2023/12/21 02:25:23;;;;;;;0.82;0.43;;;;;;;6.79;100.00;99642.31;5028442;28;20568;-70
2023/12/21 02:27:52;;;;;;;1.10;0.60;;;;;;;6.79;100.00;99632.63;5024901;28;20084;-72
2023/12/21 02:30:20;;;;;;;0.30;0.30;;;;;;;6.77;100.00;99628.38;5015970;28;20479;-70
2023/12/21 02:32:48;;;;;;;0.60;0.43;;;;;;;6.79;100.00;99631.78;5041582;28;20054;-70
2023/12/21 02:35:18;;;;;;;0.38;0.38;;;;;;;6.82;100.00;99626.38;5039111;28;20052;-72
2023/12/21 02:37:46;;;;;;;0.60;0.40;;;;;;;6.82;100.00;99616.72;5032187;28;20441;-69
2023/12/21 02:40:16;;;;;;;1.58;0.50;;;;;;;6.86;100.00;99606.91;5021798;28;20041;-69
2023/12/21 02:42:45;;;;;;;0.47;0.40;;;;;;;6.91;100.00;99611.06;5031017;28;20049;-72
2023/12/21 02:45:14;;;;;;;1.23;0.30;;;;;;;6.93;100.00;99610.97;5026952;28;20056;-70
2023/12/21 02:47:42;;;;;;;0.40;0.30;;;;;;;6.86;100.00;99593.75;5030013;28;20052;-68
2023/12/21 02:50:12;;;;;;;0.40;0.40;;;;;;;6.97;100.00;99617.81;5025847;28;20049;-69
2023/12/21 02:52:42;;;;;;;0.30;0.30;;;;;;;6.95;100.00;99627.56;5032679;28;20049;-69
2023/12/21 02:55:10;;;;;;;0.90;0.30;;;;;;;6.93;100.00;99624.13;5034887;28;20076;-70
2023/12/21 02:57:38;;;;;;;0.82;0.38;;;;;;;6.95;100.00;99606.50;5033752;28;20048;-70
2023/12/21 03:00:10;;;;;;;0.57;0.30;;;;;;;6.93;100.00;99592.53;5014503;28;20048;-71
2023/12/21 03:02:38;;;;;;;1.27;0.40;;;;;;;6.98;100.00;99593.19;5036100;28;20045;-71
2023/12/21 03:05:07;;;;;;;1.13;0.43;;;;;;;6.97;100.00;99599.38;5017962;28;20044;-68
2023/12/21 03:07:35;;;;;;;0.30;0.30;;;;;;;7.00;100.00;99589.59;5013300;28;20042;-70
2023/12/21 03:10:05;;;;;;;0.73;0.40;;;;;;;7.00;100.00;99588.72;5023644;28;20124;-71
2023/12/21 03:12:33;;;;;;;0.40;0.40;;;;;;;7.00;100.00;99588.72;5029322;28;20132;-68
2023/12/21 03:15:03;;;;;;;0.40;0.30;;;;;;;7.08;100.00;99598.94;5023515;28;20065;-70
2023/12/21 03:17:33;;;;;;;0.47;0.20;;;;;;;7.10;100.00;99578.63;5036835;28;20045;-69
2023/12/21 03:20:03;;;;;;;1.50;0.40;;;;;;;7.09;100.00;99574.28;5004530;28;20045;-70
2023/12/21 03:22:31;;;;;;;0.63;0.30;;;;;;;7.10;100.00;99562.81;5044440;28;20478;-69
2023/12/21 03:25:01;;;;;;;0.30;0.30;;;;;;;7.10;100.00;99547.88;5029664;28;20107;-70
2023/12/21 03:27:29;;;;;;;0.88;0.40;;;;;;;7.13;100.00;99545.13;5031966;28;20049;-70
2023/12/21 03:29:57;;;;;;;0.30;0.30;;;;;;;7.16;100.00;99544.13;5024221;28;20057;-68
2023/12/21 03:32:25;;;;;;;0.20;0.20;;;;;;;7.15;100.00;99540.63;5027310;28;20045;-73
2023/12/21 03:34:56;;;;;;;0.20;0.20;;;;;;;7.16;100.00;99539.72;5027040;28;20131;-71
2023/12/21 03:37:27;;;;;;;0.20;0.20;;;;;;;7.17;100.00;99538.78;5027601;28;20057;-73
2023/12/21 03:39:57;;;;;;;0.38;0.30;;;;;;;7.19;100.00;99533.47;5037223;28;20080;-69
2023/12/21 03:42:25;;;;;;;0.30;0.30;;;;;;;7.20;100.00;99528.13;5030023;28;20059;-70
2023/12/21 03:44:53;;;;;;;0.40;0.40;;;;;;;7.28;100.00;99525.97;5028926;28;20037;-70
2023/12/21 03:47:21;;;;;;;0.30;0.30;;;;;;;7.31;100.00;99514.44;5030893;28;20057;-70
2023/12/21 03:49:50;;;;;;;0.85;0.30;;;;;;;7.36;100.00;99507.19;5008713;28;20113;-69
2023/12/21 03:52:21;;;;;;;0.20;0.20;;;;;;;7.36;100.00;99494.88;5029002;28;20061;-70
2023/12/21 03:54:50;;;;;;;0.22;0.22;;;;;;;7.44;100.00;99497.13;5030682;28;20034;-70
2023/12/21 03:57:18;;;;;;;3.08;0.30;;;;;;;7.47;100.00;99475.03;5048589;28;20120;-71
2023/12/21 03:59:48;;;;;;;0.40;0.30;;;;;;;7.48;100.00;99484.66;5025544;28;20049;-69
2023/12/21 04:02:17;;;;;;;0.30;0.30;;;;;;;7.38;100.00;99464.03;5029637;28;20053;-70
2023/12/21 04:04:47;;;;;;;0.32;0.30;;;;;;;7.51;100.00;99479.25;5044515;28;20056;-71
2023/12/21 04:07:15;;;;;;;0.32;0.32;;;;;;;7.55;100.00;99493.97;5033592;28;20049;-71
2023/12/21 04:09:44;;;;;;;0.32;0.30;;;;;;;7.56;100.00;99498.28;5031904;28;20111;-70
2023/12/21 04:12:12;;;;;;;0.30;0.20;;;;;;;7.53;100.00;99488.78;5027044;28;20046;-72
2023/12/21 04:14:42;;;;;;;0.20;0.20;;;;;;;7.59;100.00;99483.19;5028614;28;20148;-70
2023/12/21 04:17:10;;;;;;;0.20;0.20;;;;;;;7.57;100.00;99479.78;5028690;28;20064;-71
2023/12/21 04:19:38;;;;;;;0.77;0.30;;;;;;;7.63;100.00;99462.81;5024061;28;20072;-71
2023/12/21 04:22:05;;;;;;;0.22;0.22;;;;;;;7.63;100.00;99460.19;5028660;28;20041;-71
2023/12/21 04:24:34;;;;;;;0.82;0.30;;;;;;;7.62;100.00;99440.03;5030778;28;20045;-72
2023/12/21 04:27:04;;;;;;;0.30;0.20;;;;;;;7.65;100.00;99446.00;5027404;28;20559;-72
2023/12/21 04:29:32;;;;;;;0.55;0.20;;;;;;;7.66;100.00;99431.06;5025327;28;20064;-70
2023/12/21 04:32:00;;;;;;;0.32;0.22;;;;;;;7.65;100.00;99419.66;5025514;28;21276;-71
2023/12/21 04:34:28;;;;;;;0.30;0.30;;;;;;;7.64;100.00;99423.22;5024530;28;20103;-70
2023/12/21 04:36:57;;;;;;;0.30;0.30;;;;;;;7.64;100.00;99427.66;5025480;28;20053;-69
2023/12/21 04:39:25;;;;;;;0.45;0.22;;;;;;;7.60;100.00;99418.19;5029436;28;20053;-70
2023/12/21 04:41:53;;;;;;;0.38;0.30;;;;;;;7.58;100.00;99407.72;5004618;28;20124;-73
2023/12/21 04:44:24;;;;;;;0.20;0.20;;;;;;;7.64;100.00;99401.28;5010848;28;20041;-73
2023/12/21 04:46:52;;;;;;;0.30;0.30;;;;;;;7.67;100.00;99407.28;5027320;28;20051;-74
2023/12/21 04:49:22;;;;;;;0.30;0.30;;;;;;;7.71;100.00;99394.81;5029247;28;20040;-71
2023/12/21 04:51:51;;;;;;;0.80;0.30;;;;;;;7.72;100.00;99383.28;5032035;28;20152;-72
2023/12/21 04:54:19;;;;;;;0.35;0.30;;;;;;;7.75;100.00;99372.59;5012278;28;20045;-72
2023/12/21 04:56:47;;;;;;;0.65;0.20;;;;;;;7.77;100.00;99372.53;5030751;28;21140;-70
2023/12/21 04:59:15;;;;;;;0.30;0.20;;;;;;;7.72;100.00;99360.44;5028132;28;20041;-71
2023/12/21 05:01:49;;;;;;;1.08;0.20;;;;;;;7.74;100.00;99363.00;5017422;28;20061;-71
2023/12/21 05:04:17;;;;;;;0.63;0.30;;;;;;;7.74;100.00;99368.25;5012120;28;20072;-71
2023/12/21 05:06:46;;;;;;;0.20;0.20;;;;;;;7.68;100.00;99339.63;5025638;28;20041;-70
2023/12/21 05:09:13;;;;;;;0.20;0.20;;;;;;;7.77;100.00;99370.75;5026737;28;20390;-73
2023/12/21 05:11:41;;;;;;;0.20;0.20;;;;;;;7.76;100.00;99363.78;5020067;28;20052;-71
2023/12/21 05:14:10;;;;;;;0.20;0.20;;;;;;;7.84;100.00;99358.13;5023978;28;20045;-71
2023/12/21 05:16:39;;;;;;;0.20;0.20;;;;;;;7.78;100.00;99356.63;5024814;28;20055;-72
2023/12/21 05:19:09;;;;;;;0.17;0.17;;;;;;;7.87;100.00;99350.88;5015302;28;20045;-73
2023/12/21 05:21:39;;;;;;;0.20;0.20;;;;;;;7.87;100.00;99355.31;5004785;28;20140;-70
2023/12/21 05:24:08;;;;;;;0.30;0.20;;;;;;;7.91;100.00;99341.88;5029847;28;20062;-70
2023/12/21 05:26:36;;;;;;;0.20;0.20;;;;;;;7.99;100.00;99342.34;5026265;28;20505;-70
2023/12/21 05:29:05;;;;;;;0.30;0.20;;;;;;;7.88;100.00;99333.28;5029345;28;20083;-71
2023/12/21 05:31:34;;;;;;;0.20;0.20;;;;;;;7.90;100.00;99323.50;5018743;28;20100;-73
2023/12/21 05:34:04;;;;;;;0.50;0.10;;;;;;;7.91;100.00;99323.44;5026215;28;20037;-71
2023/12/21 05:36:34;;;;;;;2.90;0.20;;;;;;;7.79;100.00;99310.91;5030963;28;20590;-71
2023/12/21 05:39:03;;;;;;;0.75;0.10;;;;;;;7.85;100.00;99310.59;5007582;28;20075;-73
2023/12/21 05:41:44;;;;;;;0.20;0.20;;;;;;;7.80;100.00;99307.34;5035555;28;20049;-73
2023/12/21 05:44:12;;;;;;;0.43;0.35;;;;;;;7.76;100.00;99300.53;5030921;28;20049;-72
2023/12/21 05:46:42;;;;;;;0.38;0.30;;;;;;;7.80;100.00;99301.22;5028197;28;20493;-71
2023/12/21 05:49:11;;;;;;;0.73;0.40;;;;;;;7.76;100.00;99292.63;5026416;28;20065;-73
2023/12/21 05:51:40;;;;;;;1.30;0.40;;;;;;;7.80;100.00;99306.50;5015551;28;20046;-71
2023/12/21 05:54:11;;;;;;;1.02;0.40;;;;;;;7.90;100.00;99290.09;5045033;28;20045;-71
2023/12/21 05:56:39;;;;;;;0.40;0.38;;;;;;;7.79;100.00;99274.00;5032139;28;20146;-70
2023/12/21 05:59:09;;;;;;;0.95;0.30;;;;;;;7.79;100.00;99279.28;5032440;28;20080;-71
2023/12/21 06:01:39;;;;;;;0.90;0.20;;;;;;;7.82;100.00;99270.38;5024352;28;20060;-72
2023/12/21 06:04:07;;;;;;;0.30;0.20;;;;;;;7.76;100.00;99258.34;5033271;28;20052;-72
2023/12/21 06:06:37;;;;;;;0.10;0.10;;;;;;;7.77;100.00;99261.84;5008175;28;20140;-72
2023/12/21 06:09:07;;;;;;;1.38;0.20;;;;;;;7.76;100.00;99266.25;5028201;28;20054;-72
2023/12/21 06:11:36;;;;;;;0.50;0.50;;;;;;;7.76;100.00;99263.63;5019883;28;20096;-72
2023/12/21 06:14:06;;;;;;;1.23;0.30;;;;;;;7.72;100.00;99251.53;5030829;28;20544;-71
2023/12/21 06:16:34;;;;;;;0.40;0.30;;;;;;;7.69;100.00;99230.66;5030371;28;20159;-71
2023/12/21 06:19:09;;;;;;;0.20;0.20;;;;;;;7.70;100.00;99233.22;5036318;28;20057;-72
2023/12/21 06:21:38;;;;;;;1.05;0.40;;;;;;;7.74;100.00;99220.69;5035063;28;20042;-71
2023/12/21 06:24:08;;;;;;;0.28;0.20;;;;;;;7.77;100.00;99228.44;5039891;28;20150;-72
2023/12/21 06:26:40;;;;;;;1.40;0.20;;;;;;;7.81;100.00;99239.69;5027097;28;20445;-72
2023/12/21 06:29:08;;;;;;;0.20;0.20;;;;;;;7.86;100.00;99237.66;5026254;28;20057;-72
2023/12/21 06:31:36;;;;;;;0.50;0.20;;;;;;;7.86;100.00;99220.06;5023409;28;20108;-72
2023/12/21 06:34:05;;;;;;;2.08;0.20;;;;;;;7.86;100.00;99222.69;5031774;28;20401;-73
2023/12/21 06:36:33;;;;;;;0.30;0.30;;;;;;;7.86;100.00;99220.06;5026897;28;20057;-73
2023/12/21 06:39:01;;;;;;;0.30;0.20;;;;;;;7.94;100.00;99220.47;5028389;28;20049;-70
2023/12/21 06:41:34;;;;;;;0.60;0.28;;;;;;;7.88;100.00;99189.16;5038359;28;20068;-71
2023/12/21 06:44:04;;;;;;;0.40;0.20;;;;;;;8.06;100.00;99190.78;5032196;28;20044;-74
2023/12/21 06:46:32;;;;;;;0.65;0.30;;;;;;;8.03;100.00;99188.31;5026848;28;20065;-71
2023/12/21 06:49:00;;;;;;;0.30;0.20;;;;;;;8.09;100.00;99193.25;5026527;28;20049;-72
2023/12/21 06:51:29;;;;;;;6.32;0.40;;;;;;;8.22;100.00;99197.84;5038718;28;20049;-72
2023/12/21 06:54:00;;;;;;;0.20;0.17;;;;;;;8.26;100.00;99197.59;5014470;28;20073;-72
2023/12/21 06:56:28;;;;;;;1.08;0.20;;;;;;;8.25;100.00;99187.97;5014610;28;20385;-74
2023/12/21 06:59:04;;;;;;;0.30;0.20;;;;;;;8.24;100.00;99185.41;5043418;28;20136;-72
2023/12/21 07:01:35;;;;;;;0.60;0.50;;;;;;;8.24;100.00;99193.31;5024189;28;20048;-71
2023/12/21 07:04:03;;;;;;;0.20;0.20;;;;;;;8.29;100.00;99180.75;5028506;28;20049;-72
2023/12/21 07:06:34;;;;;;;1.08;0.30;;;;;;;8.28;100.00;99186.94;5032192;28;20050;-70
2023/12/21 07:09:03;;;;;;;0.30;0.30;;;;;;;8.37;100.00;99194.38;5035783;28;20136;-73
2023/12/21 07:11:34;;;;;;;0.30;0.30;;;;;;;8.33;100.00;99196.34;5026738;28;20056;-70
2023/12/21 07:14:03;;;;;;;0.88;0.35;;;;;;;8.29;100.00;99212.41;5033806;28;20045;-72
2023/12/21 07:16:31;;;;;;;1.02;0.50;;;;;;;8.31;100.00;99198.19;5051111;28;20049;-71
2023/12/21 07:19:00;;;;;;;0.30;0.30;;;;;;;8.31;100.00;99192.06;5035986;28;20506;-70
2023/12/21 07:21:29;;;;;;;0.45;0.45;;;;;;;8.29;100.00;99197.41;5026090;28;20132;-70
2023/12/21 07:23:57;;;;;;;0.40;0.30;;;;;;;8.19;100.00;99153.16;5030921;28;20109;-71
2023/12/21 07:26:26;;;;;;;1.55;0.40;;;;;;;8.31;100.00;99178.88;5032175;28;20580;-73
2023/12/21 07:28:54;;;;;;;0.47;0.35;;;;;;;8.27;100.00;99177.34;5034848;28;20041;-73
2023/12/21 07:31:24;;;;;;;1.15;0.50;;;;;;;8.24;100.00;99157.25;5021780;28;20084;-71
2023/12/21 07:33:52;;;;;;;0.90;0.45;;;;;;;8.31;100.00;99158.63;5027685;28;20542;-74
2023/12/21 07:36:21;;;;;;;0.90;0.35;;;;;;;8.27;100.00;99140.41;5025569;28;20127;-73
2023/12/21 07:38:50;;;;;;;1.27;0.40;;;;;;;8.37;100.00;99149.53;5027212;28;20042;-73
2023/12/21 07:41:18;;;;;;;0.30;0.30;;;;;;;8.37;100.00;99150.38;5007142;28;20049;-72
2023/12/21 07:43:47;;;;;;;0.65;0.45;;;;;;;8.35;100.00;99156.66;4993501;28;22935;-72
2023/12/21 07:46:17;;;;;;;0.40;0.40;;;;;;;8.24;100.00;99148.50;5029746;28;20045;-73
2023/12/21 07:48:47;;;;;;;0.73;0.50;;;;;;;8.28;100.00;99147.38;5026372;28;20567;-71
2023/12/21 07:51:16;;;;;;;0.20;0.20;;;;;;;8.34;100.00;99155.00;5026945;28;20049;-72
2023/12/21 07:53:45;;;;;;;0.30;0.30;;;;;;;8.41;100.00;99136.06;5025673;28;20049;-72
2023/12/21 07:56:14;;;;;;;0.30;0.20;;;;;;;8.41;100.00;99136.06;5022142;28;20053;-74
2023/12/21 07:58:44;;;;;;;1.27;0.40;;;;;;;8.41;100.00;99129.94;5027881;28;20085;-72
2023/12/21 08:01:12;;;;;;;2.22;0.75;;;;;;;8.41;100.00;99133.44;5024864;28;20049;-73
2023/12/21 08:03:40;;;;;;;0.60;0.40;;;;;;;8.43;100.00;99118.38;5024795;28;20690;-73
2023/12/21 08:06:20;;;;;;;0.50;0.35;;;;;;;8.47;100.00;99113.78;5026236;28;20041;-72
2023/12/21 08:08:48;;;;;;;0.30;0.30;;;;;;;8.47;100.00;99113.78;4971755;28;1533610;-72
2023/12/21 08:11:25;;;;;;;1.52;1.30;;;;;;;8.49;100.00;99122.44;5025539;28;20099;-71
2023/12/21 08:13:57;;;;;;;0.40;0.32;;;;;;;8.49;100.00;99118.97;5006618;28;20259;-70
2023/12/21 08:16:28;;;;;;;0.85;0.40;;;;;;;8.52;100.00;99124.03;5028580;28;20045;-73
2023/12/21 08:18:57;;;;;;;0.70;0.40;;;;;;;8.47;100.00;99115.56;5027761;28;20068;-73
2023/12/21 08:21:26;;;;;;;2.72;0.30;;;;;;;8.43;100.00;99097.25;5023364;28;21594;-71
2023/12/21 08:23:55;;;;;;;0.32;0.30;;;;;;;8.41;100.00;99101.78;5009920;28;20458;-73
2023/12/21 08:26:24;;;;;;;1.85;0.40;;;;;;;8.39;100.00;99097.53;5029299;28;20084;-72
2023/12/21 08:28:54;;;;;;;0.30;0.30;;;;;;;8.33;100.00;99096.13;5026531;28;20044;-73
2023/12/21 08:31:27;;;;;;;0.50;0.40;;;;;;;8.33;100.00;99088.22;5008614;28;21610;-71
2023/12/21 08:33:59;;;;;;;0.60;0.50;;;;;;;8.39;100.00;99076.44;5034854;28;20472;-72
2023/12/21 08:36:29;;;;;;;;;;;;;;;8.37;100.00;99076.50;5036974;28;20073;-73
2023/12/21 08:38:58;;;;;;;1.60;0.40;;;;;;;8.35;100.00;99070.47;5029589;28;19971;-71
2023/12/21 08:41:26;;;;;;;0.65;0.40;;;;;;;8.30;100.00;99061.97;5022577;28;20387;-70
2023/12/21 08:43:55;;;;;;;0.57;0.57;;;;;;;8.29;100.00;99056.78;5022639;28;20046;-70
2023/12/21 08:46:24;;;;;;;0.40;0.40;;;;;;;8.26;100.00;99055.16;5011593;28;20063;-71
2023/12/21 08:48:53;;;;;;;1.23;0.68;;;;;;;8.21;100.00;99051.09;5029526;28;20065;-71
2023/12/21 08:51:22;;;;;;;0.93;0.43;;;;;;;8.21;100.00;99053.72;5025154;28;20061;-71
2023/12/21 08:53:52;;;;;;;2.55;0.40;;;;;;;8.26;100.00;99041.97;5023136;28;20046;-72
2023/12/21 08:56:22;;;;;;;1.17;0.55;;;;;;;8.24;100.00;99035.09;5044350;28;20581;-72
2023/12/21 08:58:53;;;;;;;0.47;0.47;;;;;;;8.28;100.00;99020.81;5028280;28;20111;-71
2023/12/21 09:01:21;;;;;;;1.80;0.50;;;;;;;8.24;100.00;99020.13;5023606;28;20117;-71
2023/12/21 09:03:50;;;;;;;0.60;0.60;;;;;;;8.26;100.00;99015.63;5021726;28;20450;-71
2023/12/21 09:06:19;;;;;;;1.08;0.50;;;;;;;8.29;100.00;98996.13;5027911;28;20405;-70
2023/12/21 09:08:49;;;;;;;0.52;0.50;;;;;;;8.24;100.00;98971.81;5036337;28;20163;-72
2023/12/21 09:11:22;;;;;;;0.60;0.60;;;;;;;8.33;100.00;98966.88;5028602;28;20124;-72
2023/12/21 09:13:52;;;;;;;0.65;0.52;;;;;;;8.31;100.00;98965.25;5020749;28;20053;-71
2023/12/21 09:16:21;;;;;;;;;;;;;;;8.32;100.00;98957.28;5016690;28;20140;-71
2023/12/21 09:18:51;;;;;;;1.23;1.00;;;;;;;8.24;100.00;98953.34;5010227;28;20484;-72
2023/12/21 09:21:20;;;;;;;;;;;;;;;8.29;100.00;98954.78;5011184;28;20049;-72
2023/12/21 09:23:48;;;;;;;1.08;0.50;;;;;;;8.25;100.00;98918.97;5020051;28;20028;-71
2023/12/21 09:26:16;;;;;;;2.60;0.40;;;;;;;8.32;100.00;98922.13;5027431;28;20063;-71
2023/12/21 09:28:46;;;;;;;0.57;0.30;;;;;;;8.40;100.00;98890.84;5007904;28;20509;-72
2023/12/21 09:31:15;;;;;;;0.30;0.30;;;;;;;8.45;100.00;98875.59;5024300;28;20464;-70
2023/12/21 09:33:43;;;;;;;0.60;0.30;;;;;;;8.46;100.00;98877.28;5018498;28;20073;-72
2023/12/21 09:36:14;;;;;;;1.20;0.40;;;;;;;8.43;100.00;98888.03;5028420;28;20054;-73
2023/12/21 09:38:42;;;;;;;0.50;0.40;;;;;;;8.48;100.00;98878.03;5031740;28;20056;-70
2023/12/21 09:41:11;;;;;;;1.08;0.40;;;;;;;8.51;100.00;98863.78;5026471;28;20049;-71
2023/12/21 09:43:42;;;;;;;1.27;0.77;;;;;;;8.49;100.00;98842.81;4999424;28;20069;-72
2023/12/21 09:46:14;;;;;;;1.80;1.58;;;;;;;8.43;100.00;98859.00;5008148;28;20048;-71
2023/12/21 09:48:43;;;;;;;0.43;0.40;;;;;;;8.53;100.00;98854.84;5029552;28;20500;-72
2023/12/21 09:51:14;;;;;;;0.57;0.30;;;;;;;8.57;100.00;98835.25;5022733;28;20041;-71
2023/12/21 09:53:43;;;;;;;0.93;0.43;;;;;;;8.63;100.00;98839.28;5033007;28;20413;-72
2023/12/21 09:56:14;;;;;;;0.40;0.30;;;;;;;8.68;100.00;98843.31;5025067;28;20048;-72
2023/12/21 09:58:43;;;;;;;;;;;;;;;8.71;100.00;98847.56;5026853;28;20495;-71
2023/12/21 10:01:12;;;;;;;0.30;0.30;;;;;;;8.59;100.00;98803.47;5025359;28;20374;-71
2023/12/21 10:03:41;;;;;;;0.65;0.30;;;;;;;8.83;100.00;98841.47;5009648;28;20038;-71
2023/12/21 10:06:10;;;;;;;1.30;0.32;;;;;;;8.83;100.00;98817.72;5029377;28;20137;-73
2023/12/21 10:08:39;;;;;;;0.52;0.20;;;;;;;8.84;100.00;98821.22;5029583;28;20583;-72
2023/12/21 10:11:07;;;;;;;0.50;0.30;;;;;;;8.89;100.00;98813.84;5036970;28;20049;-71
2023/12/21 10:13:38;;;;;;;3.35;2.38;;;;;;;8.87;100.00;98815.75;5018067;28;20417;-71
2023/12/21 10:16:07;;;;;;;1.08;0.30;;;;;;;8.84;100.00;98805.38;5023258;28;20319;-71
2023/12/21 10:18:37;;;;;;;0.70;0.35;;;;;;;8.88;100.00;98810.38;5011863;28;20045;-71
2023/12/21 10:21:14;;;;;;;0.47;0.30;;;;;;;8.88;100.00;98807.72;5026097;28;20063;-70
2023/12/21 10:23:44;;;;;;;0.40;0.25;;;;;;;8.86;100.00;98804.34;5016457;28;20440;-71
2023/12/21 10:26:14;;;;;;;0.10;0.10;;;;;;;8.96;100.00;98807.25;5026968;28;20045;-71
2023/12/21 10:28:48;;;;;;;0.52;0.20;;;;;;;9.01;100.00;98803.31;5010660;28;20117;-72
2023/12/21 10:31:16;;;;;;;0.38;0.20;;;;;;;8.98;100.00;98792.97;5026122;28;20045;-71
2023/12/21 10:33:47;;;;;;;0.65;0.60;;;;;;;8.90;100.00;98783.88;5018386;28;20896;-72
2023/12/21 10:36:17;;;;;;;0.43;0.28;;;;;;;8.93;100.00;98779.25;5045212;28;20045;-73
2023/12/21 10:38:45;;;;;;;0.95;0.40;;;;;;;8.89;100.00;98768.97;5027831;28;20056;-71
2023/12/21 10:41:21;;;;;;;0.57;0.35;;;;;;;8.94;100.00;98775.66;5025572;28;20061;-72
2023/12/21 10:43:49;;;;;;;0.70;0.30;;;;;;;8.91;100.00;98775.84;5022078;28;20068;-73
2023/12/21 10:46:18;;;;;;;0.55;0.30;;;;;;;8.86;100.00;98759.47;5013307;28;20049;-71
2023/12/21 10:48:50;;;;;;;1.88;0.32;;;;;;;8.89;100.00;98755.78;5031804;28;20107;-70
2023/12/21 10:51:20;;;;;;;1.20;0.60;;;;;;;8.81;100.00;98758.94;5005076;28;20065;-74
2023/12/21 10:53:51;;;;;;;1.02;0.60;;;;;;;8.78;100.00;98736.22;5006254;28;20205;-72
2023/12/21 10:56:21;;;;;;;0.63;0.30;;;;;;;8.72;100.00;98723.41;5044739;28;20132;-71
2023/12/21 10:58:53;;;;;;;1.42;0.50;;;;;;;8.81;100.00;98721.13;5026491;28;20045;-73
2023/12/21 11:01:22;;;;;;;1.83;0.40;;;;;;;8.78;100.00;98723.03;5015945;28;20053;-72
2023/12/21 11:03:53;;;;;;;2.47;0.70;;;;;;;8.72;100.00;98710.22;5010163;28;20042;-72
2023/12/21 11:06:22;;;;;;;1.42;0.93;;;;;;;8.74;100.00;98705.69;5006681;28;20846;-72
2023/12/21 11:08:51;;;;;;;1.30;0.73;;;;;;;8.72;100.00;98696.19;5031560;28;20084;-72
2023/12/21 11:11:22;;;;;;;0.60;0.40;;;;;;;8.71;100.00;98684.78;5030464;28;20041;-72
2023/12/21 11:13:52;;;;;;;0.98;0.40;;;;;;;8.72;100.00;98698.81;5019393;28;20052;-70
2023/12/21 11:16:24;;;;;;;0.88;0.50;;;;;;;8.69;100.00;98697.22;5010665;28;20422;-70
2023/12/21 11:18:57;;;;;;;0.45;0.40;;;;;;;8.69;100.00;98662.06;5030457;28;20084;-69
2023/12/21 11:21:27;;;;;;;0.73;0.73;;;;;;;8.69;100.00;98665.56;5025848;28;20099;-70
2023/12/21 11:23:55;;;;;;;0.60;0.40;;;;;;;8.68;100.00;98661.22;5010451;28;20052;-69
2023/12/21 11:26:27;;;;;;;0.80;0.38;;;;;;;8.68;100.00;98647.19;5019440;28;20049;-71
2023/12/21 11:29:05;;;;;;;1.10;0.25;;;;;;;8.66;100.00;98649.94;5012816;28;20057;-71
2023/12/21 11:31:38;;;;;;;1.95;0.65;;;;;;;8.67;100.00;98622.59;5028881;28;20140;-70
2023/12/21 11:34:13;;;;;;;0.50;0.43;;;;;;;8.74;100.00;98621.25;5021641;28;20885;-70
2023/12/21 11:36:41;;;;;;;0.80;0.40;;;;;;;8.71;100.00;98626.72;5032218;28;20087;-71
2023/12/21 11:39:12;;;;;;;1.20;0.47;;;;;;;8.66;100.00;98623.53;5030692;28;20065;-68
2023/12/21 11:41:51;;;;;;;2.85;0.70;;;;;;;8.66;100.00;98614.78;5038011;28;20103;-70
2023/12/21 11:44:21;;;;;;;0.73;0.40;;;;;;;8.69;100.00;98623.34;5023051;28;20125;-70